createdAt,value
2018-07-17T00:00:52.802Z,7.93
2018-07-17T00:03:22.044Z,8.37
2018-07-17T00:05:51.424Z,8.23
2018-07-17T00:08:21.695Z,7.60
2018-07-17T00:10:51.060Z,7.30
2018-07-17T00:13:20.404Z,7.80
2018-07-17T00:15:49.747Z,8.00
2018-07-17T00:18:19.043Z,8.20
2018-07-17T00:20:48.400Z,8.50
2018-07-17T00:23:17.362Z,8.53
2018-07-17T00:25:46.774Z,9.10
2018-07-17T00:28:15.814Z,8.20
2018-07-17T00:30:45.056Z,8.47
2018-07-17T00:33:14.416Z,7.60
2018-07-17T00:35:43.768Z,9.17
2018-07-17T00:38:13.442Z,7.17
2018-07-17T00:40:42.775Z,8.23
2018-07-17T00:43:12.095Z,8.27
2018-07-17T00:45:41.475Z,8.60
2018-07-17T00:48:10.837Z,7.80
2018-07-17T00:50:40.161Z,8.50
2018-07-17T00:53:09.649Z,8.43
2018-07-17T00:55:39.191Z,7.00
2018-07-17T00:58:08.563Z,9.30
2018-07-17T01:00:43.128Z,8.23
2018-07-17T01:03:17.658Z,8.57
2018-07-17T01:05:52.751Z,8.57
2018-07-17T01:08:32.941Z,7.90
2018-07-17T01:11:12.686Z,7.93
2018-07-17T01:14:24.255Z,8.30
2018-07-17T01:16:59.188Z,7.73
2018-07-17T01:19:28.184Z,8.53
2018-07-17T01:21:57.413Z,8.93
2018-07-17T01:24:26.797Z,8.90
2018-07-17T01:26:56.121Z,7.87
2018-07-17T01:29:25.511Z,7.90
2018-07-17T01:31:54.827Z,7.90
2018-07-17T01:34:24.164Z,7.67
2018-07-17T01:36:53.491Z,7.30
2018-07-17T01:39:22.864Z,8.17
2018-07-17T01:41:52.195Z,7.90
2018-07-17T01:44:22.096Z,8.33
2018-07-17T01:46:51.441Z,9.23
2018-07-17T01:49:20.798Z,9.33
2018-07-17T01:51:50.487Z,9.30
2018-07-17T01:54:19.863Z,8.00
2018-07-17T01:56:49.223Z,9.30
2018-07-17T01:59:18.544Z,8.63
2018-07-17T02:01:47.915Z,8.97
2018-07-17T02:04:17.256Z,8.87
2018-07-17T02:06:46.355Z,9.40
2018-07-17T02:09:16.443Z,10.20
2018-07-17T02:11:45.847Z,10.90
2018-07-17T02:14:15.207Z,10.00
2018-07-17T02:16:44.222Z,9.07
2018-07-17T02:19:13.449Z,8.07
2018-07-17T02:21:42.800Z,7.97
2018-07-17T02:24:12.095Z,9.93
2018-07-17T02:26:41.106Z,8.97
2018-07-17T02:29:10.367Z,8.80
2018-07-17T02:31:39.727Z,8.80
2018-07-17T02:34:09.018Z,8.50
2018-07-17T02:36:38.599Z,10.53
2018-07-17T02:39:08.781Z,8.80
2018-07-17T02:41:38.154Z,9.07
2018-07-17T02:44:07.470Z,9.60
2018-07-17T02:46:36.821Z,8.40
2018-07-17T02:49:06.227Z,9.80
2018-07-17T02:51:35.560Z,8.80
2018-07-17T02:54:04.924Z,8.40
2018-07-17T02:56:34.240Z,9.10
2018-07-17T02:59:03.609Z,8.13
2018-07-17T03:01:32.985Z,9.00
2018-07-17T03:04:02.367Z,9.37
2018-07-17T03:06:31.827Z,8.93
2018-07-17T03:09:01.148Z,9.27
2018-07-17T03:11:30.482Z,9.27
2018-07-17T03:13:59.859Z,9.50
2018-07-17T03:16:29.464Z,8.83
2018-07-17T03:18:58.799Z,9.40
2018-07-17T03:21:28.129Z,10.87
2018-07-17T03:23:57.490Z,11.53
2018-07-17T03:26:26.797Z,10.63
2018-07-17T03:28:56.143Z,9.57
2018-07-17T03:31:25.497Z,9.07
2018-07-17T03:33:54.933Z,9.50
2018-07-17T03:36:24.266Z,9.07
2018-07-17T03:38:53.631Z,8.80
2018-07-17T03:41:22.975Z,8.70
2018-07-17T03:43:52.335Z,10.17
2018-07-17T03:46:21.647Z,8.77
2018-07-17T03:48:50.942Z,9.50
2018-07-17T03:51:20.283Z,8.87
2018-07-17T03:53:49.603Z,9.00
2018-07-17T03:56:18.950Z,9.93
2018-07-17T03:58:48.299Z,8.43
2018-07-17T04:01:18.035Z,8.23
2018-07-17T04:03:46.994Z,8.87
2018-07-17T04:06:16.263Z,9.27
2018-07-17T04:08:45.733Z,9.10
2018-07-17T04:11:15.014Z,8.43
2018-07-17T04:13:44.339Z,8.57
2018-07-17T04:16:13.458Z,8.77
2018-07-17T04:18:42.694Z,8.90
2018-07-17T04:21:12.076Z,8.30
2018-07-17T04:23:41.760Z,8.73
2018-07-17T04:26:11.088Z,9.27
2018-07-17T04:28:40.418Z,10.20
2018-07-17T04:31:09.739Z,8.17
2018-07-17T04:33:39.028Z,8.10
2018-07-17T04:36:08.878Z,8.43
2018-07-17T04:38:38.191Z,8.40
2018-07-17T04:41:07.830Z,6.83
2018-07-17T04:43:37.155Z,9.03
2018-07-17T04:46:06.977Z,9.03
2018-07-17T04:48:36.304Z,8.33
2018-07-17T04:51:05.747Z,7.90
2018-07-17T04:53:35.132Z,7.90
2018-07-17T04:56:04.475Z,7.43
2018-07-17T04:58:33.826Z,7.77
2018-07-17T05:01:03.139Z,7.57
2018-07-17T05:03:32.480Z,8.20
2018-07-17T05:06:01.807Z,7.97
2018-07-17T05:08:31.198Z,8.00
2018-07-17T05:11:00.472Z,9.37
2018-07-17T05:13:29.418Z,8.57
2018-07-17T05:15:58.294Z,9.67
2018-07-17T05:18:27.502Z,9.57
2018-07-17T05:20:56.840Z,9.63
2018-07-17T05:23:26.168Z,10.70
2018-07-17T05:25:55.530Z,9.77
2018-07-17T05:28:24.868Z,9.47
2018-07-17T05:30:54.187Z,10.20
2018-07-17T05:33:23.491Z,9.43
2018-07-17T05:35:52.812Z,10.73
2018-07-17T05:38:22.508Z,9.13
2018-07-17T05:40:51.814Z,9.47
2018-07-17T05:43:21.143Z,10.20
2018-07-17T05:45:50.901Z,8.13
2018-07-17T05:48:20.627Z,8.50
2018-07-17T05:50:49.944Z,8.03
2018-07-17T05:53:19.287Z,9.30
2018-07-17T05:55:48.642Z,10.00
2018-07-17T05:58:17.932Z,11.83
2018-07-17T06:00:47.250Z,9.30
2018-07-17T06:03:16.568Z,8.80
2018-07-17T06:05:45.915Z,10.30
2018-07-17T06:08:14.903Z,10.90
2018-07-17T06:10:44.173Z,9.90
2018-07-17T06:13:13.461Z,9.70
2018-07-17T06:15:42.797Z,8.07
2018-07-17T06:18:12.093Z,9.17
2018-07-17T06:20:41.546Z,8.77
2018-07-17T06:23:10.464Z,7.83
2018-07-17T06:25:39.784Z,9.00
2018-07-17T06:28:09.085Z,8.70
2018-07-17T06:30:38.439Z,9.40
2018-07-17T06:33:07.766Z,9.43
2018-07-17T06:35:37.112Z,9.37
2018-07-17T06:38:06.750Z,8.77
2018-07-17T06:40:36.231Z,8.00
2018-07-17T06:43:05.564Z,7.13
2018-07-17T06:45:35.376Z,8.70
2018-07-17T06:48:04.670Z,8.60
2018-07-17T06:50:34.217Z,7.60
2018-07-17T06:53:03.435Z,9.77
2018-07-17T06:55:32.728Z,6.97
2018-07-17T06:58:02.407Z,7.67
2018-07-17T07:00:31.736Z,8.40
2018-07-17T07:03:00.715Z,6.30
2018-07-17T07:05:29.926Z,8.30
2018-07-17T07:07:59.306Z,7.80
2018-07-17T07:10:28.718Z,6.50
2018-07-17T07:12:58.065Z,6.87
2018-07-17T07:15:27.363Z,6.90
2018-07-17T07:17:56.704Z,7.00
2018-07-17T07:20:26.011Z,6.80
2018-07-17T07:22:55.344Z,6.30
2018-07-17T07:25:24.663Z,7.00
2018-07-17T07:27:54.018Z,6.87
2018-07-17T07:30:23.354Z,5.63
2018-07-17T07:32:52.712Z,5.37
2018-07-17T07:35:22.054Z,5.80
2018-07-17T07:37:51.630Z,5.53
2018-07-17T07:40:21.179Z,5.53
2018-07-17T07:42:50.570Z,5.73
2018-07-17T07:45:19.902Z,4.87
2018-07-17T07:47:49.228Z,5.40
2018-07-17T07:50:18.552Z,4.63
2018-07-17T07:52:47.879Z,4.67
2018-07-17T07:55:17.284Z,4.60
2018-07-17T07:57:46.784Z,4.77
2018-07-17T08:00:16.155Z,4.70
2018-07-17T08:02:45.470Z,4.00
2018-07-17T08:05:14.824Z,6.20
2018-07-17T08:07:44.182Z,4.10
2018-07-17T08:10:13.615Z,4.10
2018-07-17T08:12:42.949Z,4.80
2018-07-17T08:15:12.324Z,5.00
2018-07-17T08:17:42.101Z,4.30
2018-07-17T08:20:11.421Z,5.13
2018-07-17T08:22:40.787Z,3.93
2018-07-17T08:25:10.123Z,4.10
2018-07-17T08:27:39.440Z,4.27
2018-07-17T08:30:08.760Z,4.50
2018-07-17T08:32:38.128Z,4.70
2018-07-17T08:35:07.791Z,5.63
2018-07-17T08:37:37.147Z,4.60
2018-07-17T08:40:06.463Z,4.60
2018-07-17T08:42:35.797Z,5.10
2018-07-17T08:45:05.096Z,5.13
2018-07-17T08:47:34.476Z,4.87
2018-07-17T08:50:04.158Z,4.63
2018-07-17T08:52:33.520Z,5.10
2018-07-17T08:55:02.813Z,4.77
2018-07-17T08:57:32.154Z,4.43
2018-07-17T09:00:01.443Z,4.73
2018-07-17T09:02:30.767Z,4.80
2018-07-17T09:05:00.113Z,4.43
2018-07-17T09:07:29.510Z,4.00
2018-07-17T09:09:58.821Z,4.67
2018-07-17T09:12:28.190Z,4.30
2018-07-17T09:14:57.491Z,4.70
2018-07-17T09:17:26.826Z,4.60
2018-07-17T09:19:56.137Z,4.10
2018-07-17T09:22:25.568Z,4.17
2018-07-17T09:24:54.613Z,4.40
2018-07-17T09:27:23.846Z,4.03
2018-07-17T09:29:52.906Z,4.50
2018-07-17T09:32:22.121Z,4.63
2018-07-17T09:34:51.442Z,4.27
2018-07-17T09:37:20.897Z,5.20
2018-07-17T09:39:50.232Z,4.60
2018-07-17T09:42:19.223Z,5.47
2018-07-17T09:44:48.485Z,4.00
2018-07-17T09:47:17.824Z,4.60
2018-07-17T09:49:47.131Z,4.60
2018-07-17T09:52:16.430Z,4.10
2018-07-17T09:54:45.834Z,4.30
2018-07-17T09:57:15.056Z,4.27
2018-07-17T09:59:44.391Z,6.93
2018-07-17T10:02:18.893Z,4.13
2018-07-17T10:04:48.260Z,4.03
2018-07-17T10:07:17.613Z,4.50
2018-07-17T10:09:46.948Z,4.60
2018-07-17T10:12:15.886Z,4.10
2018-07-17T10:14:45.124Z,4.13
2018-07-17T10:17:14.416Z,4.10
2018-07-17T10:19:43.727Z,4.47
2018-07-17T10:22:13.063Z,5.10
2018-07-17T10:24:42.635Z,4.10
2018-07-17T10:27:12.030Z,5.17
2018-07-17T10:29:41.385Z,4.67
2018-07-17T10:32:10.799Z,4.57
2018-07-17T10:34:40.146Z,4.90
2018-07-17T10:37:09.132Z,4.67
2018-07-17T10:39:38.393Z,5.07
2018-07-17T10:42:07.979Z,5.00
2018-07-17T10:44:37.284Z,4.20
2018-07-17T10:47:06.890Z,4.70
2018-07-17T10:49:36.187Z,5.10
2018-07-17T10:52:05.497Z,4.73
2018-07-17T10:54:34.837Z,4.17
2018-07-17T10:57:04.192Z,4.60
2018-07-17T10:59:33.895Z,4.10
2018-07-17T11:02:02.879Z,4.37
2018-07-17T11:04:32.118Z,4.00
2018-07-17T11:07:01.122Z,3.80
2018-07-17T11:09:30.319Z,3.70
2018-07-17T11:11:59.311Z,4.47
2018-07-17T11:14:28.151Z,4.47
2018-07-17T11:16:57.363Z,3.73
2018-07-17T11:19:26.735Z,4.40
2018-07-17T11:21:56.035Z,3.33
2018-07-17T11:24:25.367Z,3.80
2018-07-17T11:26:54.655Z,3.50
2018-07-17T11:29:23.987Z,3.30
2018-07-17T11:31:53.040Z,3.53
2018-07-17T11:34:22.268Z,3.60
2018-07-17T11:36:51.963Z,3.60
2018-07-17T11:39:21.291Z,3.80
2018-07-17T11:41:50.581Z,4.60
2018-07-17T11:44:19.916Z,3.80
2018-07-17T11:46:49.259Z,4.03
2018-07-17T11:49:18.588Z,3.27
2018-07-17T11:51:47.884Z,3.57
2018-07-17T11:54:18.302Z,3.97
2018-07-17T11:56:47.623Z,3.37
2018-07-17T11:59:17.050Z,3.40
2018-07-17T12:01:46.359Z,3.60
2018-07-17T12:04:15.712Z,3.57
2018-07-17T12:06:45.095Z,3.23
2018-07-17T12:09:14.406Z,3.10
2018-07-17T12:11:43.716Z,2.80
2018-07-17T12:14:12.676Z,3.33
2018-07-17T12:16:41.883Z,2.93
2018-07-17T12:19:11.184Z,3.53
2018-07-17T12:21:40.227Z,5.93
2018-07-17T12:24:09.464Z,2.80
2018-07-17T12:26:38.810Z,3.00
2018-07-17T12:29:08.095Z,3.23
2018-07-17T12:31:37.051Z,3.87
2018-07-17T12:34:06.268Z,3.10
2018-07-17T12:36:35.628Z,3.20
2018-07-17T12:39:06.734Z,3.00
2018-07-17T12:41:36.094Z,3.60
2018-07-17T12:44:05.571Z,2.83
2018-07-17T12:46:34.932Z,4.17
2018-07-17T12:49:04.372Z,2.80
2018-07-17T12:51:34.094Z,3.30
2018-07-17T12:54:03.468Z,3.07
2018-07-17T12:56:32.838Z,3.20
2018-07-17T12:59:02.153Z,3.53
2018-07-17T13:01:31.495Z,3.17
2018-07-17T13:04:00.840Z,3.00
2018-07-17T13:06:30.239Z,4.40
2018-07-17T13:08:59.567Z,3.40
2018-07-17T13:11:28.987Z,3.40
2018-07-17T13:13:58.294Z,3.30
2018-07-17T13:16:27.679Z,2.53
2018-07-17T13:18:56.990Z,4.50
2018-07-17T13:21:26.292Z,4.50
2018-07-17T13:23:55.986Z,3.63
2018-07-17T13:26:25.307Z,4.37
2018-07-17T13:28:54.632Z,3.20
2018-07-17T13:31:23.970Z,3.87
2018-07-17T13:33:53.360Z,3.43
2018-07-17T13:36:22.674Z,3.87
2018-07-17T13:38:52.011Z,3.23
2018-07-17T13:41:20.975Z,4.10
2018-07-17T13:43:50.282Z,3.57
2018-07-17T13:46:19.602Z,3.50
2018-07-17T13:48:49.028Z,3.80
2018-07-17T13:51:17.987Z,3.20
2018-07-17T13:53:47.204Z,4.43
2018-07-17T13:58:36.976Z,3.93
2018-07-17T14:01:06.295Z,3.50
2018-07-17T14:03:35.674Z,3.57
2018-07-17T14:06:05.340Z,3.80
2018-07-17T14:08:34.659Z,3.13
2018-07-17T14:11:04.016Z,3.90
2018-07-17T14:13:33.900Z,3.40
2018-07-17T14:16:02.905Z,3.40
2018-07-17T14:18:32.204Z,3.30
2018-07-17T14:21:01.612Z,5.40
2018-07-17T14:23:30.955Z,3.30
2018-07-17T14:26:00.305Z,3.50
2018-07-17T14:28:29.582Z,3.70
2018-07-17T14:30:58.911Z,3.73
2018-07-17T14:33:28.217Z,3.90
2018-07-17T14:35:57.583Z,2.93
2018-07-17T14:38:26.903Z,3.43
2018-07-17T14:40:56.704Z,3.30
2018-07-17T14:43:26.014Z,4.53
2018-07-17T14:45:55.322Z,3.67
2018-07-17T14:48:24.316Z,3.13
2018-07-17T14:50:53.568Z,3.30
2018-07-17T14:53:22.876Z,2.80
2018-07-17T14:55:52.208Z,2.93
2018-07-17T14:58:21.520Z,3.00
2018-07-17T15:00:50.853Z,2.60
2018-07-17T15:03:20.519Z,3.17
2018-07-17T15:05:50.344Z,2.70
2018-07-17T15:08:19.592Z,3.23
2018-07-17T15:10:48.872Z,2.90
2018-07-17T15:13:18.203Z,3.33
2018-07-17T15:15:47.525Z,3.00
2018-07-17T15:18:16.853Z,2.87
2018-07-17T15:20:46.215Z,2.83
2018-07-17T15:23:15.556Z,4.23
2018-07-17T15:25:44.515Z,3.73
2018-07-17T15:28:13.798Z,3.50
2018-07-17T15:30:43.072Z,4.60
2018-07-17T15:33:12.425Z,3.67
2018-07-17T15:35:41.739Z,3.90
2018-07-17T15:38:11.055Z,6.33
2018-07-17T15:40:40.375Z,5.07
2018-07-17T15:43:09.711Z,5.73
2018-07-17T15:45:39.020Z,3.63
2018-07-17T15:48:08.341Z,3.60
2018-07-17T15:50:37.680Z,4.03
2018-07-17T15:53:07.052Z,3.80
2018-07-17T15:55:36.392Z,3.70
2018-07-17T15:58:05.671Z,3.70
2018-07-17T16:00:34.678Z,4.63
2018-07-17T16:03:03.901Z,3.97
2018-07-17T16:05:33.234Z,3.77
2018-07-17T16:08:02.559Z,3.47
2018-07-17T16:10:31.893Z,3.73
2018-07-17T16:13:01.291Z,4.37
2018-07-17T16:15:30.238Z,3.80
2018-07-17T16:17:59.430Z,4.90
2018-07-17T16:20:28.747Z,5.30
2018-07-17T16:22:58.042Z,4.07
2018-07-17T16:25:27.051Z,5.23
2018-07-17T16:27:56.465Z,4.33
2018-07-17T16:30:26.225Z,4.50
2018-07-17T16:32:55.511Z,4.13
2018-07-17T16:35:24.871Z,4.33
2018-07-17T16:37:54.177Z,3.90
2018-07-17T16:40:23.534Z,4.73
2018-07-17T16:42:53.023Z,4.30
2018-07-17T16:45:22.754Z,4.07
2018-07-17T16:47:52.096Z,3.97
2018-07-17T16:50:21.380Z,4.10
2018-07-17T16:52:50.716Z,4.83
2018-07-17T16:55:20.037Z,5.57
2018-07-17T16:57:49.358Z,4.70
2018-07-17T17:00:18.686Z,4.70
2018-07-17T17:02:48.010Z,5.27
2018-07-17T17:05:17.350Z,4.37
2018-07-17T17:07:46.694Z,4.87
2018-07-17T17:10:16.002Z,5.03
2018-07-17T17:12:45.351Z,4.93
2018-07-17T17:15:14.663Z,4.73
2018-07-17T17:17:44.019Z,4.63
2018-07-17T17:20:13.363Z,5.13
2018-07-17T17:22:42.784Z,4.53
2018-07-17T17:25:12.123Z,4.90
2018-07-17T17:27:41.682Z,4.97
2018-07-17T17:30:10.998Z,5.23
2018-07-17T17:32:40.395Z,4.70
2018-07-17T17:35:09.711Z,4.87
2018-07-17T17:37:39.079Z,4.10
2018-07-17T17:40:08.391Z,5.80
2018-07-17T17:42:38.350Z,5.80
2018-07-17T17:45:07.672Z,5.70
2018-07-17T17:47:36.635Z,4.40
2018-07-17T17:50:05.827Z,4.60
2018-07-17T17:52:35.187Z,3.47
2018-07-17T17:55:04.868Z,4.23
2018-07-17T17:57:34.231Z,3.83
2018-07-17T18:00:03.686Z,4.00
2018-07-17T18:02:33.047Z,3.80
2018-07-17T18:05:02.415Z,3.60
2018-07-17T18:07:31.804Z,3.60
2018-07-17T18:10:01.408Z,3.33
2018-07-17T18:12:30.804Z,3.83
2018-07-17T18:15:00.142Z,4.73
2018-07-17T18:17:29.485Z,3.60
2018-07-17T18:19:58.805Z,3.47
2018-07-17T18:22:28.142Z,4.10
2018-07-17T18:24:57.510Z,4.00
2018-07-17T18:27:26.852Z,4.50
2018-07-17T18:29:56.215Z,4.00
2018-07-17T18:32:25.568Z,4.33
2018-07-17T18:34:54.944Z,3.80
2018-07-17T18:37:24.315Z,3.70
2018-07-17T18:39:53.668Z,3.70
2018-07-17T18:42:23.003Z,3.77
2018-07-17T18:44:52.357Z,4.17
2018-07-17T18:47:21.656Z,3.53
2018-07-17T18:50:12.000Z,4.33
2018-07-17T18:52:20.573Z,3.80
2018-07-17T18:54:49.925Z,3.90
2018-07-17T18:57:19.228Z,4.20
2018-07-17T18:59:48.644Z,4.00
2018-07-17T19:02:17.931Z,4.33
2018-07-17T19:04:47.247Z,5.07
2018-07-17T19:07:16.613Z,4.57
2018-07-17T19:09:45.949Z,4.60
2018-07-17T19:12:14.967Z,5.40
2018-07-17T19:14:44.153Z,4.30
2018-07-17T19:17:13.825Z,5.03
2018-07-17T19:19:43.138Z,5.27
2018-07-17T19:22:12.167Z,5.13
2018-07-17T19:24:41.918Z,4.40
2018-07-17T19:27:11.324Z,4.30
2018-07-17T19:29:40.647Z,4.60
2018-07-17T19:32:09.989Z,4.53
2018-07-17T19:34:39.309Z,4.50
2018-07-17T19:37:08.711Z,4.80
2018-07-17T19:39:38.044Z,4.40
2018-07-17T19:42:07.382Z,5.33
2018-07-17T19:44:36.679Z,4.73
2018-07-17T19:47:06.264Z,4.77
2018-07-17T19:49:35.194Z,4.00
2018-07-17T19:52:04.567Z,4.63
2018-07-17T19:54:33.880Z,4.60
2018-07-17T19:57:03.280Z,4.80
2018-07-17T19:59:32.603Z,4.57
2018-07-17T20:02:01.985Z,4.50
2018-07-17T20:04:31.505Z,4.47
2018-07-17T20:07:00.944Z,4.83
2018-07-17T20:09:30.271Z,5.90
2018-07-17T20:11:59.577Z,4.97
2018-07-17T20:14:28.916Z,7.37
2018-07-17T20:16:58.222Z,4.60
2018-07-17T20:19:27.565Z,4.93
2018-07-17T20:21:56.880Z,5.03
2018-07-17T20:24:26.267Z,4.97
2018-07-17T20:26:55.576Z,5.50
2018-07-17T20:29:24.917Z,4.70
2018-07-17T20:31:54.328Z,5.13
2018-07-17T20:34:23.703Z,5.03
2018-07-17T20:36:53.011Z,5.03
2018-07-17T20:39:22.339Z,6.40
2018-07-17T20:41:51.660Z,4.83
2018-07-17T20:44:21.015Z,4.90
2018-07-17T20:46:50.391Z,4.87
2018-07-17T20:49:19.714Z,4.63
2018-07-17T20:51:49.019Z,4.80
2018-07-17T20:54:18.338Z,4.97
2018-07-17T20:56:47.666Z,6.03
2018-07-17T20:59:17.014Z,4.77
2018-07-17T21:01:46.316Z,4.80
2018-07-17T21:04:15.639Z,5.63
2018-07-17T21:06:45.008Z,4.93
2018-07-17T21:09:14.373Z,5.27
2018-07-17T21:11:43.729Z,6.27
2018-07-17T21:14:13.448Z,6.00
2018-07-17T21:16:42.780Z,5.57
2018-07-17T21:19:12.136Z,5.93
2018-07-17T21:21:41.471Z,5.77
2018-07-17T21:24:10.834Z,5.67
2018-07-17T21:26:40.215Z,6.53
2018-07-17T21:29:09.568Z,6.47
2018-07-17T21:31:38.666Z,5.67
2018-07-17T21:34:07.967Z,5.13
2018-07-17T21:36:37.781Z,5.17
2018-07-17T21:39:09.206Z,5.57
2018-07-17T21:41:38.591Z,6.23
2018-07-17T21:44:08.007Z,5.20
2018-07-17T21:46:37.351Z,5.13
2018-07-17T21:49:06.684Z,7.30
2018-07-17T21:51:36.047Z,5.77
2018-07-17T21:54:05.422Z,5.00
2018-07-17T21:56:34.480Z,4.57
2018-07-17T21:59:03.768Z,4.40
2018-07-17T22:01:33.168Z,4.87
2018-07-17T22:04:02.889Z,5.60
2018-07-17T22:06:32.263Z,4.70
2018-07-17T22:09:01.555Z,5.67
2018-07-17T22:11:30.871Z,4.80
2018-07-17T22:14:00.551Z,5.10
2018-07-17T22:16:29.531Z,5.47
2018-07-17T22:18:58.768Z,5.50
2018-07-17T22:21:28.049Z,4.73
2018-07-17T22:23:57.367Z,6.87
2018-07-17T22:26:26.737Z,7.53
2018-07-17T22:28:56.085Z,7.67
2018-07-17T22:31:25.405Z,5.23
2018-07-17T22:33:55.112Z,5.67
2018-07-17T22:36:24.415Z,4.77
2018-07-17T22:38:54.196Z,5.30
2018-07-17T22:41:23.521Z,5.90
2018-07-17T22:43:53.316Z,5.00
2018-07-17T22:46:22.790Z,5.10
2018-07-17T22:48:52.150Z,5.57
2018-07-17T22:51:21.459Z,7.07
2018-07-17T22:53:50.839Z,5.63
2018-07-17T22:56:19.790Z,5.63
2018-07-17T22:58:49.449Z,7.37
2018-07-17T23:01:19.050Z,5.80
2018-07-17T23:03:48.415Z,5.40
2018-07-17T23:06:17.736Z,6.60
2018-07-17T23:08:46.774Z,5.97
2018-07-17T23:11:15.987Z,5.10
2018-07-17T23:13:45.325Z,5.90
2018-07-17T23:16:14.656Z,5.23
2018-07-17T23:18:44.006Z,4.97
2018-07-17T23:21:13.341Z,5.40
2018-07-17T23:23:42.696Z,5.30
2018-07-17T23:26:12.036Z,5.57
2018-07-17T23:28:41.793Z,5.50
2018-07-17T23:31:11.109Z,4.47
2018-07-17T23:33:40.114Z,5.10
2018-07-17T23:36:09.370Z,5.03
2018-07-17T23:38:38.644Z,4.80
2018-07-17T23:41:07.944Z,5.33
2018-07-17T23:43:36.916Z,5.30
2018-07-17T23:46:07.259Z,5.10
2018-07-17T23:48:36.639Z,5.30
2018-07-17T23:51:05.935Z,5.63
2018-07-17T23:53:35.234Z,5.10
2018-07-17T23:56:04.180Z,5.87
2018-07-17T23:58:33.400Z,5.63
